createdAt,value
2022-08-30T00:01:50.166Z,7.30
2022-08-30T00:07:00.089Z,8.00
2022-08-30T00:12:09.737Z,7.60
2022-08-30T00:17:20.722Z,7.20
2022-08-30T00:22:29.013Z,8.10
2022-08-30T00:27:36.666Z,9.60
2022-08-30T00:32:47.709Z,8.60
2022-08-30T00:37:55.582Z,8.70
2022-08-30T00:43:06.569Z,8.10
2022-08-30T00:48:15.069Z,8.80
2022-08-30T00:53:26.487Z,8.80
2022-08-30T00:58:37.100Z,9.00
2022-08-30T01:03:45.300Z,9.20
2022-08-30T01:08:53.568Z,8.90
2022-08-30T01:14:05.565Z,9.30
2022-08-30T01:19:28.640Z,7.30
2022-08-30T01:24:39.134Z,8.50
2022-08-30T01:29:48.172Z,9.00
2022-08-30T01:34:55.732Z,8.90
2022-08-30T01:40:05.671Z,7.30
2022-08-30T01:45:14.828Z,8.40
2022-08-30T01:50:26.742Z,8.80
2022-08-30T01:55:34.278Z,7.00
2022-08-30T02:00:41.837Z,6.10
2022-08-30T02:05:52.494Z,7.00
2022-08-30T02:11:01.076Z,8.50
2022-08-30T02:16:09.385Z,7.40
2022-08-30T02:21:17.289Z,6.70
2022-08-30T02:26:26.926Z,8.50
2022-08-30T02:31:34.954Z,7.40
2022-08-30T02:36:48.347Z,7.80
2022-08-30T02:41:56.536Z,7.70
2022-08-30T02:47:04.822Z,8.40
2022-08-30T02:52:12.388Z,9.50
2022-08-30T02:57:20.532Z,10.10
2022-08-30T03:02:30.963Z,10.20
2022-08-30T03:07:38.975Z,9.80
2022-08-30T03:12:49.286Z,9.60
2022-08-30T03:17:57.391Z,10.90
2022-08-30T03:23:06.381Z,11.00
2022-08-30T03:28:15.355Z,11.00
2022-08-30T03:33:23.042Z,11.90
2022-08-30T03:38:31.853Z,8.70
2022-08-30T03:43:41.160Z,8.70
2022-08-30T03:48:51.025Z,8.50
2022-08-30T03:53:59.167Z,10.80
2022-08-30T03:59:07.241Z,11.30
2022-08-30T04:04:20.011Z,8.60
2022-08-30T04:09:28.834Z,10.40
2022-08-30T04:14:36.518Z,10.00
2022-08-30T04:19:44.355Z,9.70
2022-08-30T04:24:59.096Z,9.60
2022-08-30T04:30:07.768Z,10.90
2022-08-30T04:35:16.403Z,11.20
2022-08-30T04:40:26.975Z,10.30
2022-08-30T04:45:34.293Z,8.70
2022-08-30T04:50:44.291Z,10.30
2022-08-30T04:55:53.986Z,9.80
2022-08-30T05:01:05.273Z,11.00
2022-08-30T05:06:14.676Z,11.40
2022-08-30T05:11:22.948Z,12.20
2022-08-30T05:16:31.333Z,11.50
2022-08-30T05:21:41.206Z,12.20
2022-08-30T05:31:56.057Z,13.40
2022-08-30T05:37:07.515Z,10.10
2022-08-30T05:42:16.859Z,13.10
2022-08-30T05:47:24.922Z,12.90
2022-08-30T05:52:33.908Z,13.20
2022-08-30T05:57:41.908Z,14.10
2022-08-30T06:02:49.142Z,11.90
2022-08-30T06:07:57.784Z,12.10
2022-08-30T06:13:04.919Z,12.50
2022-08-30T06:18:12.154Z,12.00
2022-08-30T06:23:19.751Z,11.10
2022-08-30T06:28:26.751Z,12.10
2022-08-30T06:33:33.803Z,11.50
2022-08-30T06:38:41.690Z,10.40
2022-08-30T06:43:49.454Z,11.00
2022-08-30T06:48:57.520Z,10.20
2022-08-30T06:54:06.857Z,10.00
2022-08-30T06:59:18.135Z,12.80
2022-08-30T07:04:26.535Z,10.80
2022-08-30T07:09:34.201Z,10.70
2022-08-30T07:14:43.455Z,11.90
2022-08-30T07:19:51.720Z,11.20
2022-08-30T07:24:59.552Z,9.70
2022-08-30T07:30:09.595Z,10.60
2022-08-30T07:35:16.864Z,9.70
2022-08-30T07:40:25.180Z,9.50
2022-08-30T07:45:32.348Z,7.10
2022-08-30T07:50:47.407Z,9.70
2022-08-30T08:00:34.110Z,9.20
2022-08-30T08:05:48.345Z,9.60
2022-08-30T08:10:57.288Z,7.90
2022-08-30T08:16:08.632Z,7.80
2022-08-30T08:21:16.614Z,7.80
2022-08-30T08:26:31.035Z,7.80
2022-08-30T08:31:44.410Z,8.10
2022-08-30T08:37:00.194Z,8.10
2022-08-30T08:42:17.225Z,6.50
2022-08-30T08:47:32.864Z,8.40
2022-08-30T08:53:24.890Z,8.40
2022-08-30T08:58:46.120Z,7.60
2022-08-30T09:04:03.971Z,7.90
2022-08-30T09:09:15.678Z,7.40
2022-08-30T09:14:34.299Z,8.40
2022-08-30T09:19:56.680Z,8.70
2022-08-30T09:25:07.813Z,9.20
2022-08-30T09:30:22.211Z,8.90
2022-08-30T09:35:39.475Z,8.90
2022-08-30T09:40:51.515Z,9.80
2022-08-30T09:46:16.283Z,8.60
2022-08-30T09:51:40.337Z,9.40
2022-08-30T09:56:56.872Z,8.70
2022-08-30T10:02:15.715Z,8.00
2022-08-30T10:07:30.488Z,8.30
2022-08-30T10:12:47.755Z,8.80
2022-08-30T10:18:05.146Z,8.80
2022-08-30T10:23:19.164Z,8.20
2022-08-30T10:28:37.258Z,7.70
2022-08-30T10:33:48.832Z,8.50
2022-08-30T10:38:58.067Z,7.40
2022-08-30T10:44:14.912Z,8.20
2022-08-30T10:49:30.600Z,8.20
2022-08-30T10:54:43.618Z,8.50
2022-08-30T10:59:56.508Z,8.30
2022-08-30T11:05:42.272Z,7.70
2022-08-30T11:11:01.383Z,6.70
2022-08-30T11:16:15.906Z,7.80
2022-08-30T11:21:38.701Z,7.90
2022-08-30T11:27:32.089Z,6.50
2022-08-30T11:33:02.219Z,6.20
2022-08-30T11:38:43.567Z,5.40
2022-08-30T11:43:57.826Z,4.90
2022-08-30T11:49:28.130Z,5.30
2022-08-30T11:54:44.929Z,5.60
2022-08-30T12:00:04.679Z,5.20
2022-08-30T12:05:32.889Z,5.20
2022-08-30T12:10:44.045Z,4.70
2022-08-30T12:16:00.607Z,3.70
2022-08-30T12:21:24.318Z,5.30
2022-08-30T12:31:47.112Z,3.50
2022-08-30T12:36:59.291Z,3.60
2022-08-30T12:42:24.267Z,3.40
2022-08-30T12:47:43.151Z,3.00
2022-08-30T12:52:57.918Z,3.50
2022-08-30T12:58:10.011Z,3.90
2022-08-30T13:03:34.642Z,3.80
2022-08-30T13:08:53.753Z,4.00
2022-08-30T13:14:23.901Z,3.70
2022-08-30T13:19:37.317Z,3.20
2022-08-30T13:24:45.901Z,2.80
2022-08-30T13:29:54.533Z,3.20
2022-08-30T13:35:02.669Z,3.70
2022-08-30T13:40:14.526Z,4.10
2022-08-30T13:50:50.724Z,3.80
2022-08-30T13:55:58.499Z,4.30
2022-08-30T14:01:06.249Z,4.10
2022-08-30T14:06:32.295Z,3.80
2022-08-30T14:11:42.606Z,3.50
2022-08-30T14:16:51.094Z,4.10
2022-08-30T14:22:01.507Z,4.00
2022-08-30T14:27:09.777Z,3.70
2022-08-30T14:32:17.116Z,5.60
2022-08-30T14:37:25.342Z,4.50
2022-08-30T14:42:32.903Z,4.20
2022-08-30T14:47:42.570Z,3.10
2022-08-30T14:52:50.574Z,4.40
2022-08-30T14:58:01.402Z,3.90
2022-08-30T15:03:12.306Z,3.90
2022-08-30T15:08:23.729Z,3.70
2022-08-30T15:13:33.726Z,3.00
2022-08-30T15:18:41.858Z,3.30
2022-08-30T15:23:51.425Z,3.70
2022-08-30T15:29:00.975Z,4.00
2022-08-30T15:34:19.669Z,3.60
2022-08-30T15:39:27.914Z,3.90
2022-08-30T15:44:37.593Z,4.00
2022-08-30T15:49:45.267Z,4.40
2022-08-30T15:54:53.556Z,4.10
2022-08-30T16:00:02.160Z,3.60
2022-08-30T16:05:17.277Z,3.90
2022-08-30T16:10:24.647Z,3.50
2022-08-30T16:15:40.336Z,3.70
2022-08-30T16:20:49.414Z,3.20
2022-08-30T16:26:03.324Z,2.80
2022-08-30T16:31:12.428Z,3.20
2022-08-30T16:36:20.411Z,3.70
2022-08-30T16:41:30.404Z,3.20
2022-08-30T16:46:42.915Z,3.00
2022-08-30T16:51:52.601Z,3.60
2022-08-30T16:57:00.885Z,3.40
2022-08-30T17:02:10.207Z,3.90
2022-08-30T17:07:21.520Z,3.90
2022-08-30T17:12:30.223Z,4.10
2022-08-30T17:17:38.350Z,4.00
2022-08-30T17:22:59.363Z,4.00
2022-08-30T17:28:14.865Z,4.10
2022-08-30T17:33:29.533Z,4.40
2022-08-30T17:38:36.718Z,4.10
2022-08-30T17:43:50.143Z,4.10
2022-08-30T17:49:01.399Z,4.30
2022-08-30T17:54:08.783Z,4.30
2022-08-30T17:59:18.124Z,4.80
2022-08-30T18:04:27.138Z,4.60
2022-08-30T18:09:34.348Z,5.10
2022-08-30T18:14:41.782Z,4.90
2022-08-30T18:19:49.119Z,4.50
2022-08-30T18:25:01.677Z,3.90
2022-08-30T18:36:30.690Z,5.50
2022-08-30T18:41:52.955Z,5.40
2022-08-30T18:47:05.680Z,4.90
2022-08-30T18:52:13.427Z,5.30
2022-08-30T18:57:22.621Z,5.50
2022-08-30T19:02:30.678Z,5.40
2022-08-30T19:07:37.891Z,6.10
2022-08-30T19:12:47.064Z,5.10
2022-08-30T19:17:54.484Z,5.60
2022-08-30T19:23:08.576Z,5.70
2022-08-30T19:28:17.227Z,5.80
2022-08-30T19:33:24.639Z,5.40
2022-08-30T19:38:32.863Z,5.40
2022-08-30T19:43:40.504Z,4.60
2022-08-30T19:48:47.943Z,5.90
2022-08-30T19:53:56.392Z,4.90
2022-08-30T19:59:06.596Z,5.00
2022-08-30T20:04:14.784Z,5.30
2022-08-30T20:09:23.044Z,6.00
2022-08-30T20:14:31.252Z,5.40
2022-08-30T20:19:39.027Z,4.40
2022-08-30T20:24:46.895Z,6.20
2022-08-30T20:29:56.664Z,5.70
2022-08-30T20:35:06.161Z,5.40
2022-08-30T20:40:16.247Z,6.00
2022-08-30T20:45:23.979Z,5.30
2022-08-30T20:50:39.379Z,4.70
2022-08-30T20:55:48.521Z,5.40
2022-08-30T21:00:56.693Z,5.60
2022-08-30T21:06:05.946Z,5.80
2022-08-30T21:11:13.918Z,5.20
2022-08-30T21:16:22.172Z,5.20
2022-08-30T21:21:30.790Z,4.70
2022-08-30T21:26:39.276Z,4.70
2022-08-30T21:31:46.973Z,4.80
2022-08-30T21:36:56.120Z,5.70
2022-08-30T21:42:03.424Z,5.70
2022-08-30T21:47:10.966Z,6.00
2022-08-30T21:52:23.290Z,5.70
2022-08-30T21:57:31.508Z,5.40
2022-08-30T22:02:38.868Z,5.40
2022-08-30T22:07:47.125Z,5.20
2022-08-30T22:12:55.041Z,4.90
2022-08-30T22:18:03.370Z,5.30
2022-08-30T22:23:11.809Z,5.10
2022-08-30T22:28:24.817Z,4.90
2022-08-30T22:33:33.163Z,5.60
2022-08-30T22:38:42.060Z,5.20
2022-08-30T22:43:50.304Z,5.20
2022-08-30T22:48:58.158Z,5.00
2022-08-30T22:54:07.251Z,4.70
2022-08-30T22:59:15.182Z,5.50
2022-08-30T23:04:23.050Z,5.20
2022-08-30T23:09:33.063Z,5.50
2022-08-30T23:14:40.814Z,4.80
2022-08-30T23:19:48.505Z,5.20
2022-08-30T23:25:15.999Z,5.20
2022-08-30T23:30:41.167Z,5.20
2022-08-30T23:36:05.613Z,5.00
2022-08-30T23:41:33.896Z,5.40
2022-08-30T23:46:59.319Z,5.10
2022-08-30T23:52:25.601Z,5.00
2022-08-30T23:57:53.886Z,6.50
